createdAt,value
2023-05-22T00:00:16.506Z,14.33
2023-05-22T00:01:51.759Z,13.63
2023-05-22T00:03:25.226Z,15.00
2023-05-22T00:04:58.731Z,13.87
2023-05-22T00:06:33.961Z,13.80
2023-05-22T00:08:11.473Z,14.03
2023-05-22T00:09:44.215Z,13.80
2023-05-22T00:11:16.260Z,13.87
2023-05-22T00:12:49.158Z,13.80
2023-05-22T00:14:21.940Z,14.20
2023-05-22T00:15:54.674Z,14.47
2023-05-22T00:17:30.621Z,14.77
2023-05-22T00:19:03.776Z,14.53
2023-05-22T00:20:38.855Z,14.97
2023-05-22T00:22:12.252Z,14.30
2023-05-22T00:23:45.607Z,14.50
2023-05-22T00:25:20.250Z,14.30
2023-05-22T00:26:52.988Z,14.47
2023-05-22T00:28:24.839Z,14.30
2023-05-22T00:29:57.681Z,15.17
2023-05-22T00:31:30.465Z,14.67
2023-05-22T00:33:04.812Z,13.90
2023-05-22T00:34:37.623Z,14.07
2023-05-22T00:36:10.779Z,15.20
2023-05-22T00:37:44.708Z,14.80
2023-05-22T00:39:17.474Z,15.00
2023-05-22T00:40:49.303Z,14.80
2023-05-22T00:42:22.112Z,14.77
2023-05-22T00:43:55.036Z,14.50
2023-05-22T00:45:27.802Z,15.37
2023-05-22T00:47:00.978Z,16.67
2023-05-22T00:48:35.135Z,15.30
2023-05-22T00:50:10.866Z,15.73
2023-05-22T00:51:43.821Z,15.33
2023-05-22T00:53:15.695Z,15.07
2023-05-22T00:54:49.483Z,15.33
2023-05-22T00:56:22.801Z,15.93
2023-05-22T00:57:55.087Z,15.93
2023-05-22T00:59:28.107Z,15.23
2023-05-22T01:01:01.040Z,15.10
2023-05-22T01:02:34.392Z,15.47
2023-05-22T01:04:11.343Z,16.17
2023-05-22T01:05:43.642Z,16.17
2023-05-22T01:07:17.675Z,16.20
2023-05-22T01:08:49.494Z,14.83
2023-05-22T01:10:22.359Z,15.17
2023-05-22T01:12:06.185Z,15.30
2023-05-22T01:13:46.964Z,15.07
2023-05-22T01:15:31.352Z,16.50
2023-05-22T01:17:13.660Z,16.53
2023-05-22T01:18:55.599Z,16.13
2023-05-22T01:20:33.205Z,17.07
2023-05-22T01:22:16.399Z,16.53
2023-05-22T01:24:11.598Z,16.33
2023-05-22T01:26:03.520Z,16.63
2023-05-22T01:27:57.008Z,16.70
2023-05-22T01:29:46.492Z,16.00
2023-05-22T01:31:21.869Z,16.27
2023-05-22T01:32:57.357Z,17.27
2023-05-22T01:34:32.710Z,16.97
2023-05-22T01:36:09.584Z,17.60
2023-05-22T01:37:44.588Z,16.80
2023-05-22T01:39:17.176Z,16.93
2023-05-22T01:40:50.055Z,16.47
2023-05-22T01:42:23.218Z,16.80
2023-05-22T01:43:55.984Z,17.23
2023-05-22T01:45:28.762Z,17.00
2023-05-22T01:47:05.222Z,17.63
2023-05-22T01:48:38.029Z,16.43
2023-05-22T01:50:12.090Z,15.63
2023-05-22T01:51:52.904Z,17.60
2023-05-22T01:53:31.885Z,17.83
2023-05-22T01:55:13.389Z,17.30
2023-05-22T01:56:54.790Z,18.03
2023-05-22T01:58:35.305Z,18.07
2023-05-22T02:00:10.829Z,17.43
2023-05-22T02:01:44.735Z,17.77
2023-05-22T02:03:23.040Z,17.07
2023-05-22T02:04:59.813Z,17.73
2023-05-22T02:06:33.175Z,18.43
2023-05-22T02:08:07.771Z,17.13
2023-05-22T02:09:42.050Z,17.27
2023-05-22T02:11:16.491Z,17.60
2023-05-22T02:12:49.831Z,18.40
2023-05-22T02:14:23.238Z,18.63
2023-05-22T02:15:57.380Z,18.23
2023-05-22T02:17:30.202Z,18.27
2023-05-22T02:19:06.464Z,16.80
2023-05-22T02:20:39.876Z,16.77
2023-05-22T02:22:13.761Z,17.60
2023-05-22T02:23:46.744Z,19.57
2023-05-22T02:25:19.633Z,18.33
2023-05-22T02:26:52.419Z,19.77
2023-05-22T02:28:24.537Z,17.43
2023-05-22T02:29:57.283Z,16.23
2023-05-22T02:31:29.353Z,17.90
2023-05-22T02:33:05.418Z,18.73
2023-05-22T02:34:39.520Z,17.57
2023-05-22T02:36:12.938Z,18.13
2023-05-22T02:37:45.684Z,18.93
2023-05-22T02:39:17.768Z,17.30
2023-05-22T02:40:50.541Z,18.43
2023-05-22T02:42:22.329Z,19.03
2023-05-22T02:43:55.101Z,18.13
2023-05-22T02:45:27.873Z,18.13
2023-05-22T02:47:00.651Z,18.23
2023-05-22T02:48:32.497Z,18.00
2023-05-22T02:50:07.939Z,18.83
2023-05-22T02:51:40.729Z,18.97
2023-05-22T02:53:14.322Z,18.17
2023-05-22T02:54:47.059Z,17.10
2023-05-22T02:56:20.933Z,17.50
2023-05-22T02:57:53.706Z,17.47
2023-05-22T02:59:26.442Z,18.43
2023-05-22T03:00:59.831Z,19.10
2023-05-22T03:02:32.532Z,19.17
2023-05-22T03:04:06.274Z,19.27
2023-05-22T03:05:40.472Z,18.73
2023-05-22T03:07:12.360Z,18.93
2023-05-22T03:08:45.185Z,18.93
2023-05-22T03:10:18.631Z,20.77
2023-05-22T03:11:51.440Z,17.77
2023-05-22T03:13:24.261Z,16.93
2023-05-22T03:14:57.014Z,16.90
2023-05-22T03:16:29.818Z,17.43
2023-05-22T03:18:03.008Z,18.60
2023-05-22T03:19:35.792Z,19.33
2023-05-22T03:21:09.945Z,18.03
2023-05-22T03:22:42.704Z,17.97
2023-05-22T03:24:15.458Z,18.80
2023-05-22T03:25:48.545Z,17.40
2023-05-22T03:27:21.279Z,19.43
2023-05-22T03:28:53.148Z,18.40
2023-05-22T03:30:25.952Z,18.30
2023-05-22T03:31:59.845Z,18.53
2023-05-22T03:33:32.683Z,19.77
2023-05-22T03:35:06.513Z,18.57
2023-05-22T03:36:41.256Z,17.50
2023-05-22T03:38:13.997Z,19.00
2023-05-22T03:39:46.738Z,18.30
2023-05-22T03:41:19.509Z,19.67
2023-05-22T03:42:52.281Z,18.87
2023-05-22T03:44:25.140Z,18.40
2023-05-22T03:45:59.207Z,18.97
2023-05-22T03:47:32.069Z,20.13
2023-05-22T03:49:04.833Z,19.37
2023-05-22T03:50:37.829Z,20.37
2023-05-22T03:52:12.064Z,18.50
2023-05-22T03:53:44.800Z,19.13
2023-05-22T03:55:17.017Z,19.67
2023-05-22T03:56:49.751Z,18.93
2023-05-22T03:58:21.568Z,19.70
2023-05-22T03:59:54.400Z,20.80
2023-05-22T04:01:27.382Z,20.80
2023-05-22T04:03:00.257Z,20.17
2023-05-22T04:04:38.349Z,19.70
2023-05-22T04:06:13.561Z,18.37
2023-05-22T04:07:46.682Z,19.10
2023-05-22T04:09:20.559Z,18.27
2023-05-22T04:10:54.373Z,17.87
2023-05-22T04:12:27.191Z,18.60
2023-05-22T04:14:04.439Z,20.00
2023-05-22T04:15:36.491Z,19.13
2023-05-22T04:17:09.357Z,19.37
2023-05-22T04:18:42.084Z,19.73
2023-05-22T04:20:14.825Z,20.13
2023-05-22T04:21:47.592Z,19.10
2023-05-22T04:23:21.386Z,19.07
2023-05-22T04:24:54.158Z,18.17
2023-05-22T04:26:29.541Z,17.23
2023-05-22T04:28:03.856Z,19.27
2023-05-22T04:29:36.415Z,18.83
2023-05-22T04:31:09.187Z,18.27
2023-05-22T04:32:42.034Z,18.13
2023-05-22T04:34:16.976Z,19.67
2023-05-22T04:35:49.692Z,18.60
2023-05-22T04:37:21.495Z,18.60
2023-05-22T04:38:55.959Z,18.27
2023-05-22T04:40:29.478Z,18.43
2023-05-22T04:42:05.759Z,18.47
2023-05-22T04:43:38.673Z,18.40
2023-05-22T04:45:13.852Z,19.20
2023-05-22T04:46:47.059Z,18.80
2023-05-22T04:48:19.421Z,18.00
2023-05-22T04:49:52.553Z,18.50
2023-05-22T04:51:25.379Z,19.57
2023-05-22T04:52:59.495Z,19.27
2023-05-22T04:54:33.992Z,18.70
2023-05-22T04:56:07.530Z,20.03
2023-05-22T04:57:40.474Z,20.13
2023-05-22T04:59:16.121Z,18.23
2023-05-22T05:00:49.408Z,19.53
2023-05-22T05:02:22.210Z,19.50
2023-05-22T05:03:55.049Z,21.00
2023-05-22T05:05:27.831Z,20.90
2023-05-22T05:07:02.339Z,20.20
2023-05-22T05:08:35.139Z,18.43
2023-05-22T05:10:10.388Z,19.73
2023-05-22T05:11:43.142Z,18.80
2023-05-22T05:13:15.896Z,19.00
2023-05-22T05:14:48.658Z,18.40
2023-05-22T05:16:21.631Z,19.67
2023-05-22T05:17:54.428Z,20.07
2023-05-22T05:19:27.883Z,19.00
2023-05-22T05:21:00.947Z,19.20
2023-05-22T05:22:33.768Z,19.03
2023-05-22T05:24:07.167Z,20.67
2023-05-22T05:25:41.253Z,20.67
2023-05-22T05:27:14.102Z,20.50
2023-05-22T05:28:46.905Z,21.03
2023-05-22T05:30:20.603Z,19.87
2023-05-22T05:31:53.647Z,21.50
2023-05-22T05:33:26.479Z,19.70
2023-05-22T05:34:59.470Z,20.13
2023-05-22T05:36:32.334Z,21.20
2023-05-22T05:38:05.073Z,19.00
2023-05-22T05:39:37.842Z,20.23
2023-05-22T05:41:11.925Z,19.07
2023-05-22T05:42:44.654Z,19.40
2023-05-22T05:44:17.393Z,18.80
2023-05-22T05:45:50.198Z,18.87
2023-05-22T05:47:23.934Z,17.30
2023-05-22T05:48:58.962Z,17.43
2023-05-22T05:50:31.694Z,18.63
2023-05-22T05:52:05.119Z,18.10
2023-05-22T05:53:37.918Z,17.47
2023-05-22T05:55:11.222Z,18.47
2023-05-22T05:56:45.372Z,18.73
2023-05-22T05:58:18.157Z,18.20
2023-05-22T05:59:50.879Z,18.57
2023-05-22T06:01:24.903Z,18.37
2023-05-22T06:02:57.741Z,17.97
2023-05-22T06:04:30.517Z,18.40
2023-05-22T06:06:03.454Z,19.77
2023-05-22T06:07:39.551Z,18.17
2023-05-22T06:09:12.685Z,17.87
2023-05-22T06:10:45.454Z,18.37
2023-05-22T06:12:19.597Z,17.60
2023-05-22T06:13:52.322Z,18.17
2023-05-22T06:15:25.109Z,18.77
2023-05-22T06:16:58.252Z,17.50
2023-05-22T06:18:31.015Z,17.83
2023-05-22T06:20:04.598Z,18.40
2023-05-22T06:21:37.336Z,18.93
2023-05-22T06:23:10.144Z,19.20
2023-05-22T06:24:42.900Z,18.63
2023-05-22T06:26:15.885Z,19.20
2023-05-22T06:27:49.986Z,18.63
2023-05-22T06:29:22.893Z,17.67
2023-05-22T06:30:57.087Z,18.00
2023-05-22T06:32:29.049Z,17.20
2023-05-22T06:34:02.391Z,18.07
2023-05-22T06:35:35.578Z,17.40
2023-05-22T06:37:08.661Z,17.93
2023-05-22T06:38:41.691Z,18.67
2023-05-22T06:40:14.436Z,18.30
2023-05-22T06:41:47.163Z,18.47
2023-05-22T06:43:21.307Z,16.40
2023-05-22T06:44:54.055Z,16.80
2023-05-22T06:46:26.823Z,15.43
2023-05-22T06:47:59.620Z,14.97
2023-05-22T06:49:32.373Z,15.07
2023-05-22T06:51:05.478Z,15.43
2023-05-22T06:52:38.899Z,15.30
2023-05-22T06:54:12.427Z,15.10
2023-05-22T06:55:45.189Z,14.93
2023-05-22T06:57:17.966Z,14.87
2023-05-22T06:58:52.044Z,14.40
2023-05-22T07:00:25.263Z,15.00
2023-05-22T07:01:57.991Z,15.13
2023-05-22T07:03:30.740Z,14.70
2023-05-22T07:05:03.495Z,14.47
2023-05-22T07:06:38.931Z,15.33
2023-05-22T07:08:12.188Z,14.10
2023-05-22T07:09:44.983Z,14.73
2023-05-22T07:11:17.725Z,15.10
2023-05-22T07:12:50.501Z,14.37
2023-05-22T07:14:24.568Z,15.40
2023-05-22T07:15:57.416Z,14.83
2023-05-22T07:17:30.236Z,14.57
2023-05-22T07:19:03.457Z,14.43
2023-05-22T07:20:36.357Z,14.53
2023-05-22T07:22:09.108Z,14.83
2023-05-22T07:23:41.885Z,14.97
2023-05-22T07:25:14.624Z,14.10
2023-05-22T07:26:47.420Z,14.60
2023-05-22T07:28:20.283Z,13.97
2023-05-22T07:29:54.449Z,14.00
2023-05-22T07:31:27.406Z,14.13
2023-05-22T07:33:00.309Z,13.47
2023-05-22T07:34:34.216Z,14.63
2023-05-22T07:36:07.548Z,15.10
2023-05-22T07:37:41.251Z,13.63
2023-05-22T07:39:14.022Z,13.83
2023-05-22T07:40:46.816Z,13.33
2023-05-22T07:42:19.632Z,13.57
2023-05-22T07:43:52.373Z,13.90
2023-05-22T07:45:26.755Z,14.97
2023-05-22T07:46:59.585Z,13.90
2023-05-22T07:48:32.376Z,13.63
2023-05-22T07:50:05.915Z,14.40
2023-05-22T07:51:38.688Z,14.00
2023-05-22T07:53:11.522Z,14.60
2023-05-22T07:54:45.444Z,14.73
2023-05-22T07:56:18.709Z,14.07
2023-05-22T07:57:52.793Z,14.20
2023-05-22T07:59:25.895Z,13.80
2023-05-22T08:01:01.440Z,14.20
2023-05-22T08:02:34.488Z,13.53
2023-05-22T08:04:08.000Z,14.23
2023-05-22T08:05:40.967Z,13.57
2023-05-22T08:07:13.766Z,13.77
2023-05-22T08:08:46.522Z,14.30
2023-05-22T08:10:19.986Z,13.87
2023-05-22T08:11:52.710Z,14.43
2023-05-22T08:13:25.541Z,14.17
2023-05-22T08:14:58.299Z,13.90
2023-05-22T08:16:32.942Z,14.40
2023-05-22T08:18:05.753Z,14.83
2023-05-22T08:19:38.931Z,14.83
2023-05-22T08:21:12.033Z,14.53
2023-05-22T08:22:44.839Z,14.33
2023-05-22T08:24:17.571Z,13.90
2023-05-22T08:25:50.599Z,14.23
2023-05-22T08:27:23.422Z,15.60
2023-05-22T08:28:56.345Z,14.17
2023-05-22T08:30:29.061Z,14.80
2023-05-22T08:32:03.322Z,14.23
2023-05-22T08:33:36.089Z,14.13
2023-05-22T08:35:09.447Z,15.20
2023-05-22T08:36:42.242Z,14.00
2023-05-22T08:38:16.227Z,14.70
2023-05-22T08:39:48.998Z,13.67
2023-05-22T08:41:21.816Z,12.83
2023-05-22T08:42:57.338Z,13.63
2023-05-22T08:44:30.205Z,12.60
2023-05-22T08:46:05.866Z,14.20
2023-05-22T08:47:41.714Z,14.83
2023-05-22T08:49:14.553Z,14.27
2023-05-22T08:50:48.560Z,14.73
2023-05-22T08:52:23.707Z,16.80
2023-05-22T08:53:58.000Z,16.00
2023-05-22T08:55:31.790Z,15.90
2023-05-22T08:57:05.403Z,15.20
2023-05-22T08:58:39.071Z,14.30
2023-05-22T09:00:13.042Z,15.40
2023-05-22T09:01:46.532Z,14.27
2023-05-22T09:03:21.494Z,15.53
2023-05-22T09:04:54.550Z,14.87
2023-05-22T09:06:28.994Z,13.97
2023-05-22T09:08:16.086Z,14.73
2023-05-22T09:09:52.211Z,16.40
2023-05-22T09:11:26.078Z,14.30
2023-05-22T09:13:03.701Z,14.67
2023-05-22T09:14:40.307Z,15.13
2023-05-22T09:16:14.418Z,14.93
2023-05-22T09:17:47.476Z,14.10
2023-05-22T09:19:21.933Z,13.37
2023-05-22T09:20:54.756Z,14.33
2023-05-22T09:22:37.847Z,14.13
2023-05-22T09:24:10.948Z,15.37
2023-05-22T09:25:43.992Z,15.57
2023-05-22T09:27:16.841Z,15.27
2023-05-22T09:28:49.586Z,15.10
2023-05-22T09:30:22.478Z,15.23
2023-05-22T09:31:55.582Z,15.43
2023-05-22T09:33:28.546Z,13.53
2023-05-22T09:35:06.733Z,14.37
2023-05-22T09:36:39.464Z,14.23
2023-05-22T09:38:12.533Z,14.27
2023-05-22T09:39:46.385Z,13.63
2023-05-22T09:41:23.147Z,13.50
2023-05-22T09:42:55.988Z,13.80
2023-05-22T09:44:30.922Z,13.83
2023-05-22T09:46:05.081Z,15.20
2023-05-22T09:47:38.109Z,13.57
2023-05-22T09:49:13.249Z,13.80
2023-05-22T09:50:49.680Z,14.70
2023-05-22T09:52:24.806Z,14.13
2023-05-22T09:54:06.373Z,13.50
2023-05-22T09:55:39.903Z,13.93
2023-05-22T09:57:18.201Z,13.67
2023-05-22T09:58:52.969Z,16.13
2023-05-22T10:00:28.034Z,14.93
2023-05-22T10:02:02.085Z,15.93
2023-05-22T10:03:36.314Z,15.20
2023-05-22T10:05:10.535Z,14.60
2023-05-22T10:06:49.631Z,14.03
2023-05-22T10:08:24.488Z,15.83
2023-05-22T10:10:03.835Z,15.23
2023-05-22T10:11:36.928Z,15.70
2023-05-22T10:13:11.375Z,15.27
2023-05-22T10:14:44.802Z,15.17
2023-05-22T10:16:17.935Z,15.83
2023-05-22T10:17:51.474Z,14.63
2023-05-22T10:19:27.088Z,15.93
2023-05-22T10:21:02.441Z,15.00
2023-05-22T10:22:38.302Z,15.37
2023-05-22T10:24:11.933Z,15.80
2023-05-22T10:25:45.543Z,15.57
2023-05-22T10:27:18.419Z,15.13
2023-05-22T10:28:57.167Z,15.53
2023-05-22T10:30:37.481Z,14.87
2023-05-22T10:32:17.977Z,15.50
2023-05-22T10:33:57.161Z,15.57
2023-05-22T10:35:48.354Z,13.37
2023-05-22T10:37:37.211Z,13.83
2023-05-22T10:39:27.193Z,13.10
2023-05-22T10:41:00.805Z,14.00
2023-05-22T10:42:34.111Z,14.27
2023-05-22T10:44:07.522Z,13.90
2023-05-22T10:45:43.080Z,13.70
2023-05-22T10:47:16.689Z,12.30
2023-05-22T10:48:50.802Z,14.10
2023-05-22T10:50:23.615Z,13.87
2023-05-22T10:51:57.949Z,12.47
2023-05-22T10:53:33.424Z,11.50
2023-05-22T10:55:11.692Z,12.40
2023-05-22T10:56:45.466Z,13.00
2023-05-22T10:58:18.939Z,12.33
2023-05-22T10:59:51.746Z,11.37
2023-05-22T11:01:27.553Z,13.30
2023-05-22T11:03:17.155Z,12.93
2023-05-22T11:04:50.743Z,13.40
2023-05-22T11:06:37.360Z,12.70
2023-05-22T11:08:28.725Z,13.47
2023-05-22T11:10:01.891Z,13.43
2023-05-22T11:11:36.005Z,13.33
2023-05-22T11:13:13.049Z,12.47
2023-05-22T11:14:50.907Z,12.77
2023-05-22T11:16:23.715Z,13.93
2023-05-22T11:18:04.115Z,13.70
2023-05-22T11:19:37.007Z,13.47
2023-05-22T11:21:13.664Z,13.47
2023-05-22T11:22:52.448Z,12.90
2023-05-22T11:24:25.252Z,12.47
2023-05-22T11:26:17.809Z,12.90
2023-05-22T11:27:52.064Z,13.23
2023-05-22T11:29:25.267Z,13.53
2023-05-22T11:30:58.788Z,13.13
2023-05-22T11:32:31.854Z,13.70
2023-05-22T11:34:04.828Z,13.13
2023-05-22T11:35:38.532Z,13.10
2023-05-22T11:37:11.715Z,12.77
2023-05-22T11:38:44.728Z,13.50
2023-05-22T11:40:19.003Z,13.77
2023-05-22T11:41:51.783Z,12.10
2023-05-22T11:43:34.308Z,13.10
2023-05-22T11:45:08.167Z,13.50
2023-05-22T11:46:41.864Z,13.20
2023-05-22T11:48:15.675Z,12.90
2023-05-22T11:49:48.679Z,12.40
2023-05-22T11:51:21.731Z,12.53
2023-05-22T11:52:56.176Z,12.73
2023-05-22T11:54:33.033Z,12.60
2023-05-22T11:56:06.811Z,12.63
2023-05-22T11:57:39.893Z,12.53
2023-05-22T11:59:13.984Z,13.30
2023-05-22T12:00:46.785Z,13.23
2023-05-22T12:02:20.054Z,13.07
2023-05-22T12:03:52.976Z,13.53
2023-05-22T12:05:25.808Z,12.87
2023-05-22T12:06:58.805Z,12.47
2023-05-22T12:08:31.854Z,13.03
2023-05-22T12:10:07.228Z,13.67
2023-05-22T12:11:40.073Z,13.80
2023-05-22T12:13:13.235Z,14.03
2023-05-22T12:14:48.078Z,14.13
2023-05-22T12:16:22.816Z,13.70
2023-05-22T12:17:56.743Z,13.10
2023-05-22T12:19:29.739Z,12.70
2023-05-22T12:21:02.651Z,13.57
2023-05-22T12:22:41.500Z,13.33
2023-05-22T12:24:14.220Z,13.17
2023-05-22T12:25:46.963Z,13.30
2023-05-22T12:27:19.731Z,13.37
2023-05-22T12:28:55.230Z,13.10
2023-05-22T12:30:29.454Z,12.83
2023-05-22T12:32:04.649Z,13.40
2023-05-22T12:33:40.267Z,13.10
2023-05-22T12:35:16.985Z,12.47
2023-05-22T12:36:49.883Z,12.50
2023-05-22T12:38:23.234Z,12.50
2023-05-22T12:39:57.229Z,12.10
2023-05-22T12:41:30.017Z,12.47
2023-05-22T12:43:02.803Z,12.97
2023-05-22T12:44:35.544Z,13.27
2023-05-22T12:46:09.643Z,13.33
2023-05-22T12:47:42.489Z,14.23
2023-05-22T12:49:15.271Z,12.67
2023-05-22T12:50:48.227Z,12.97
2023-05-22T12:52:20.991Z,13.03
2023-05-22T12:53:53.946Z,12.57
2023-05-22T12:55:26.698Z,14.33
2023-05-22T12:56:59.449Z,14.03
2023-05-22T12:58:32.178Z,12.90
2023-05-22T13:00:05.886Z,13.30
2023-05-22T13:01:40.051Z,12.60
2023-05-22T13:03:13.101Z,13.10
2023-05-22T13:04:45.853Z,13.33
2023-05-22T13:06:18.793Z,14.23
2023-05-22T13:07:51.592Z,13.30
2023-05-22T13:09:24.389Z,12.17
2023-05-22T13:10:57.315Z,13.27
2023-05-22T13:12:31.450Z,13.30
2023-05-22T13:14:04.311Z,12.30
2023-05-22T13:15:37.142Z,12.90
2023-05-22T13:17:11.695Z,12.47
2023-05-22T13:18:44.496Z,12.87
2023-05-22T13:20:17.328Z,12.67
2023-05-22T13:21:50.073Z,13.53
2023-05-22T13:23:22.964Z,12.97
2023-05-22T13:24:55.697Z,12.40
2023-05-22T13:26:28.428Z,12.50
2023-05-22T13:28:01.971Z,13.40
2023-05-22T13:29:34.776Z,13.20
2023-05-22T13:31:07.523Z,13.30
2023-05-22T13:32:41.675Z,13.03
2023-05-22T13:34:14.589Z,13.27
2023-05-22T13:35:47.350Z,13.60
2023-05-22T13:37:20.100Z,14.63
2023-05-22T13:38:52.882Z,14.20
2023-05-22T13:40:25.776Z,13.87
2023-05-22T13:41:57.614Z,12.80
2023-05-22T13:43:30.393Z,13.70
2023-05-22T13:45:03.465Z,13.53
2023-05-22T13:46:37.942Z,13.20
2023-05-22T13:48:13.627Z,13.57
2023-05-22T13:49:46.807Z,13.67
2023-05-22T13:51:19.527Z,13.23
2023-05-22T13:52:53.512Z,14.10
2023-05-22T13:54:26.340Z,13.63
2023-05-22T13:55:59.186Z,13.33
2023-05-22T13:57:31.938Z,13.67
2023-05-22T13:59:06.035Z,13.33
2023-05-22T14:00:40.535Z,14.00
2023-05-22T14:02:13.442Z,13.07
2023-05-22T14:03:47.583Z,13.60
2023-05-22T14:05:20.363Z,13.57
2023-05-22T14:06:53.230Z,13.27
2023-05-22T14:08:26.075Z,13.40
2023-05-22T14:10:00.537Z,14.00
2023-05-22T14:11:34.220Z,13.87
2023-05-22T14:13:07.012Z,14.03
2023-05-22T14:14:39.745Z,13.70
2023-05-22T14:16:12.474Z,13.40
2023-05-22T14:17:45.412Z,13.13
2023-05-22T14:19:19.817Z,13.53
2023-05-22T14:20:52.598Z,13.10
2023-05-22T14:22:25.473Z,12.90
2023-05-22T14:23:58.285Z,12.83
2023-05-22T14:25:31.077Z,13.20
2023-05-22T14:27:02.848Z,12.97
2023-05-22T14:28:36.203Z,12.83
2023-05-22T14:30:13.340Z,12.10
2023-05-22T14:31:50.477Z,13.33
2023-05-22T14:33:24.151Z,13.43
2023-05-22T14:34:58.231Z,12.80
2023-05-22T14:36:31.215Z,13.47
2023-05-22T14:38:04.017Z,12.80
2023-05-22T14:39:36.834Z,13.53
2023-05-22T14:41:10.541Z,13.40
2023-05-22T14:42:43.344Z,13.27
2023-05-22T14:44:16.381Z,13.33
2023-05-22T14:45:49.109Z,13.53
2023-05-22T14:47:21.891Z,14.33
2023-05-22T14:48:54.798Z,14.03
2023-05-22T14:50:28.891Z,13.63
2023-05-22T14:52:01.735Z,12.73
2023-05-22T14:53:33.548Z,13.83
2023-05-22T14:55:06.947Z,12.73
2023-05-22T14:56:39.693Z,13.27
2023-05-22T14:58:12.453Z,13.83
2023-05-22T14:59:45.229Z,13.70
2023-05-22T15:01:17.981Z,14.23
2023-05-22T15:02:50.898Z,14.40
2023-05-22T15:04:24.693Z,13.27
2023-05-22T15:05:58.912Z,14.00
2023-05-22T15:07:43.250Z,13.70
2023-05-22T15:09:17.968Z,14.13
2023-05-22T15:10:50.835Z,14.53
2023-05-22T15:12:23.569Z,14.73
2023-05-22T15:13:56.415Z,14.00
2023-05-22T15:15:29.202Z,14.13
2023-05-22T15:17:02.352Z,14.17
2023-05-22T15:18:35.104Z,14.10
2023-05-22T15:20:09.185Z,14.10
2023-05-22T15:21:43.277Z,14.13
2023-05-22T15:23:16.384Z,14.13
2023-05-22T15:24:49.246Z,14.37
2023-05-22T15:26:22.281Z,14.40
2023-05-22T15:27:55.014Z,14.90
2023-05-22T15:29:28.837Z,14.77
2023-05-22T15:31:01.592Z,14.60
2023-05-22T15:32:34.512Z,14.77
2023-05-22T15:34:07.327Z,14.43
2023-05-22T15:35:40.835Z,14.37
2023-05-22T15:37:15.180Z,14.13
2023-05-22T15:38:47.908Z,14.73
2023-05-22T15:40:22.485Z,15.20
2023-05-22T15:42:05.916Z,13.73
2023-05-22T15:43:39.397Z,15.23
2023-05-22T15:45:12.407Z,14.13
2023-05-22T15:46:45.113Z,14.30
2023-05-22T15:48:17.888Z,14.33
2023-05-22T15:49:50.767Z,14.30
2023-05-22T15:51:23.514Z,18.17
2023-05-22T15:52:57.602Z,20.60
2023-05-22T15:54:30.507Z,21.27
2023-05-22T15:56:03.281Z,20.57
2023-05-22T15:57:36.027Z,20.77
2023-05-22T15:59:08.791Z,21.37
2023-05-22T16:00:41.617Z,21.10
2023-05-22T16:02:14.978Z,23.00
2023-05-22T16:03:47.910Z,22.30
2023-05-22T16:05:20.790Z,22.03
2023-05-22T16:06:53.539Z,23.97
2023-05-22T16:08:27.899Z,27.40
2023-05-22T16:10:00.704Z,26.33
2023-05-22T16:11:33.516Z,27.83
2023-05-22T16:13:06.410Z,26.63
2023-05-22T16:14:40.205Z,23.83
2023-05-22T16:16:13.414Z,27.87
2023-05-22T16:17:46.588Z,28.33
2023-05-22T16:19:19.455Z,24.33
2023-05-22T16:20:52.488Z,24.53
2023-05-22T16:22:33.061Z,21.13
2023-05-22T16:24:14.670Z,20.37
2023-05-22T16:25:48.903Z,18.73
2023-05-22T16:27:22.926Z,18.40
2023-05-22T16:28:55.794Z,18.30
2023-05-22T16:30:28.678Z,20.70
2023-05-22T16:32:01.536Z,20.77
2023-05-22T16:33:36.286Z,19.53
2023-05-22T16:35:09.837Z,22.33
2023-05-22T16:36:42.594Z,20.67
2023-05-22T16:38:15.439Z,23.57
2023-05-22T16:39:49.510Z,21.47
2023-05-22T16:41:22.832Z,24.17
2023-05-22T16:42:55.782Z,24.17
2023-05-22T16:44:28.649Z,26.43
2023-05-22T16:46:01.390Z,23.40
2023-05-22T16:47:34.218Z,25.87
2023-05-22T16:49:06.984Z,27.17
2023-05-22T16:50:42.374Z,26.30
2023-05-22T16:52:16.274Z,26.20
2023-05-22T16:53:51.161Z,23.37
2023-05-22T16:55:25.253Z,22.77
2023-05-22T16:56:58.075Z,26.27
2023-05-22T16:58:32.394Z,26.53
2023-05-22T17:00:06.753Z,23.97
2023-05-22T17:01:39.622Z,26.50
2023-05-22T17:03:13.395Z,24.23
2023-05-22T17:04:47.249Z,23.77
2023-05-22T17:06:21.172Z,26.53
2023-05-22T17:07:53.991Z,26.77
2023-05-22T17:09:27.456Z,25.50
2023-05-22T17:11:01.536Z,26.77
2023-05-22T17:12:34.284Z,25.07
2023-05-22T17:14:07.090Z,27.33
2023-05-22T17:15:39.996Z,27.90
2023-05-22T17:17:12.857Z,27.30
2023-05-22T17:18:45.658Z,25.27
2023-05-22T17:20:18.880Z,27.57
2023-05-22T17:21:52.053Z,28.10
2023-05-22T17:23:24.854Z,24.57
2023-05-22T17:24:57.594Z,26.10
2023-05-22T17:26:33.176Z,24.70
2023-05-22T17:28:05.918Z,24.73
2023-05-22T17:29:38.726Z,26.50
2023-05-22T17:31:11.525Z,28.40
2023-05-22T17:32:45.012Z,28.73
2023-05-22T17:34:17.897Z,27.90
2023-05-22T17:35:50.916Z,28.07
2023-05-22T17:37:23.641Z,27.80
2023-05-22T17:38:56.377Z,28.43
2023-05-22T17:40:40.504Z,28.50
2023-05-22T17:42:17.846Z,29.07
2023-05-22T17:43:50.600Z,27.37
2023-05-22T17:45:23.479Z,25.10
2023-05-22T17:46:56.235Z,24.90
2023-05-22T17:48:29.006Z,28.43
2023-05-22T17:50:02.039Z,27.63
2023-05-22T17:51:34.918Z,26.57
2023-05-22T17:53:07.688Z,25.23
2023-05-22T17:54:40.536Z,27.13
2023-05-22T17:56:13.330Z,27.13
2023-05-22T17:57:47.482Z,28.47
2023-05-22T17:59:20.317Z,28.10
2023-05-22T18:00:53.198Z,24.73
2023-05-22T18:02:26.449Z,25.40
2023-05-22T18:03:59.954Z,24.47
2023-05-22T18:05:32.961Z,23.17
2023-05-22T18:07:05.996Z,25.07
2023-05-22T18:08:39.916Z,26.60
2023-05-22T18:10:13.079Z,26.07
2023-05-22T18:11:45.829Z,26.90
2023-05-22T18:13:20.125Z,27.73
2023-05-22T18:14:52.882Z,25.87
2023-05-22T18:16:25.674Z,23.80
2023-05-22T18:17:58.612Z,27.60
2023-05-22T18:19:31.445Z,25.97
2023-05-22T18:21:04.572Z,27.43
2023-05-22T18:22:38.130Z,24.17
2023-05-22T18:24:11.077Z,23.97
2023-05-22T18:25:43.830Z,26.30
2023-05-22T18:27:16.578Z,26.60
2023-05-22T18:28:50.633Z,27.10
2023-05-22T18:30:22.465Z,27.17
2023-05-22T18:31:55.318Z,26.93
2023-05-22T18:33:28.178Z,27.60
2023-05-22T18:35:03.448Z,28.30
2023-05-22T18:36:36.198Z,26.93
2023-05-22T18:38:08.944Z,26.17
2023-05-22T18:39:41.680Z,28.37
2023-05-22T18:41:14.484Z,28.57
2023-05-22T18:42:47.221Z,24.47
2023-05-22T18:44:21.314Z,24.80
2023-05-22T18:45:55.710Z,25.67
2023-05-22T18:47:28.485Z,26.90
2023-05-22T18:49:01.793Z,27.67
2023-05-22T18:50:34.549Z,25.67
2023-05-22T18:52:07.338Z,24.83
2023-05-22T18:53:40.424Z,24.93
2023-05-22T18:55:13.269Z,24.70
2023-05-22T18:56:46.043Z,24.33
2023-05-22T18:58:18.814Z,24.90
2023-05-22T18:59:52.928Z,24.23
2023-05-22T19:01:26.093Z,24.53
2023-05-22T19:02:59.246Z,26.27
2023-05-22T19:04:32.047Z,27.40
2023-05-22T19:06:05.471Z,27.23
2023-05-22T19:07:38.217Z,24.03
2023-05-22T19:09:11.367Z,24.90
2023-05-22T19:10:44.192Z,24.47
2023-05-22T19:12:17.009Z,24.67
2023-05-22T19:13:49.752Z,26.57
2023-05-22T19:15:25.521Z,24.60
2023-05-22T19:16:59.604Z,24.70
2023-05-22T19:18:32.413Z,27.43
2023-05-22T19:20:07.357Z,25.27
2023-05-22T19:21:40.158Z,26.87
2023-05-22T19:23:13.724Z,25.90
2023-05-22T19:24:46.531Z,27.80
2023-05-22T19:26:19.429Z,24.80
2023-05-22T19:27:52.181Z,27.57
2023-05-22T19:29:24.955Z,25.50
2023-05-22T19:31:00.011Z,28.23
2023-05-22T19:32:32.823Z,25.00
2023-05-22T19:34:05.782Z,26.77
2023-05-22T19:35:38.696Z,27.10
2023-05-22T19:37:11.536Z,25.37
2023-05-22T19:38:44.289Z,24.10
2023-05-22T19:40:17.186Z,26.07
2023-05-22T19:41:50.979Z,25.23
2023-05-22T19:43:23.727Z,26.03
2023-05-22T19:44:56.501Z,25.03
2023-05-22T19:46:30.644Z,26.00
2023-05-22T19:48:03.653Z,28.63
2023-05-22T19:49:37.271Z,29.23
2023-05-22T19:51:10.252Z,26.43
2023-05-22T19:52:42.998Z,27.93
2023-05-22T19:54:15.788Z,29.43
2023-05-22T19:55:48.553Z,28.10
2023-05-22T19:57:21.350Z,26.63
2023-05-22T19:58:54.079Z,24.60
2023-05-22T20:00:28.405Z,28.27
2023-05-22T20:02:02.540Z,29.27
2023-05-22T20:03:35.610Z,29.57
2023-05-22T20:05:12.702Z,27.03
2023-05-22T20:06:45.461Z,28.63
2023-05-22T20:08:18.798Z,30.07
2023-05-22T20:09:51.552Z,30.47